| time (UTC) | temp F | wind direction | speed MPH | gust MPH | rain 1hr in | rain 24hr in | rain mn in | humidity % | barometer mb |
| 20260504050520 | 60 | 174 | 1.0 | 1.0 | 0.00 | 0.00 | 0.00 | 56 | 1011.4 |
| 20260504050017 | 59 | 173 | 0.0 | 1.0 | 0.00 | 0.00 | 0.00 | 56 | 1011.6 |
| 20260504045513 | 60 | 185 | 1.0 | 1.0 | 0.00 | 0.00 | 0.00 | 56 | 1011.6 |
| 20260504045008 | 60 | 165 | 1.0 | 1.0 | 0.00 | 0.00 | 0.00 | 56 | 1011.6 |
| 20260504044506 | 60 | 179 | 2.0 | 2.0 | 0.00 | 0.00 | 0.00 | 55 | 1011.8 |
| 20260504044003 | 60 | 199 | 2.0 | 3.0 | 0.00 | 0.00 | 0.00 | 56 | 1011.8 |
| 20260504043500 | 60 | 189 | 0.0 | 1.0 | 0.00 | 0.00 | 0.00 | 55 | 1011.9 |
| 20260504042958 | 60 | 208 | 2.0 | 3.0 | 0.00 | 0.00 | 0.00 | 54 | 1011.8 |
| 20260504042454 | 60 | 184 | 6.0 | 8.0 | 0.00 | 0.00 | 0.00 | 53 | 1011.8 |
| 20260504041951 | 60 | 195 | 1.0 | 2.0 | 0.00 | 0.00 | 0.00 | 54 | 1011.9 |
| 20260504041447 | 60 | 182 | 3.0 | 3.0 | 0.00 | 0.00 | 0.00 | 56 | 1012.1 |
| 20260504040943 | 60 | 204 | 0.0 | 1.0 | 0.00 | 0.00 | 0.00 | 55 | 1012.4 |
| 20260504040441 | 59 | 173 | 0.0 | 1.0 | 0.00 | 0.00 | 0.00 | 57 | 1012.5 |
| 20260504035936 | 59 | 182 | 2.0 | 2.0 | 0.00 | 0.00 | 0.00 | 57 | 1012.3 |
| 20260504035434 | 59 | 180 | 1.0 | 1.0 | 0.00 | 0.00 | 0.00 | 57 | 1012.5 |
| 20260504034931 | 60 | 163 | 2.0 | 3.0 | 0.00 | 0.00 | 0.00 | 56 | 1012.5 |
| 20260504034429 | 60 | 180 | 2.0 | 2.0 | 0.00 | 0.00 | 0.00 | 56 | 1012.3 |
| 20260504033925 | 60 | 184 | 1.0 | 2.0 | 0.00 | 0.00 | 0.00 | 56 | 1012.4 |
| 20260504033423 | 60 | 154 | 3.0 | 4.0 | 0.00 | 0.00 | 0.00 | 55 | 1012.3 |
| 20260504032920 | 60 | 168 | 1.0 | 2.0 | 0.00 | 0.00 | 0.00 | 56 | 1012.5 |
| 20260504032417 | 60 | 207 | 3.0 | 4.0 | 0.00 | 0.00 | 0.00 | 55 | 1012.4 |
| 20260504031914 | 60 | 176 | 4.0 | 7.0 | 0.00 | 0.00 | 0.00 | 54 | 1012.7 |
| 20260504031411 | 60 | 188 | 3.0 | 3.0 | 0.00 | 0.00 | 0.00 | 54 | 1012.9 |
| 20260504030907 | 60 | 183 | 2.0 | 3.0 | 0.00 | 0.00 | 0.00 | 54 | 1012.8 |
| 20260504030404 | 60 | 173 | 2.0 | 3.0 | 0.00 | 0.00 | 0.00 | 54 | 1013.0 |
| 20260504025900 | 60 | 159 | 6.0 | 7.0 | 0.00 | 0.00 | 0.00 | 53 | 1013.2 |
| 20260504025357 | 60 | 177 | 1.0 | 2.0 | 0.00 | 0.00 | 0.00 | 54 | 1013.1 |
| 20260504024854 | 61 | 165 | 1.0 | 2.0 | 0.00 | 0.00 | 0.00 | 54 | 1013.1 |
| 20260504024350 | 60 | 158 | 1.0 | 1.0 | 0.00 | 0.00 | 0.00 | 53 | 1013.1 |
| 20260504023848 | 61 | 174 | 2.0 | 2.0 | 0.00 | 0.00 | 0.00 | 53 | 1013.0 |
| 20260504023344 | 61 | 178 | 3.0 | 3.0 | 0.00 | 0.00 | 0.00 | 52 | 1013.0 |
| 20260504022840 | 61 | 172 | 1.0 | 1.0 | 0.00 | 0.00 | 0.00 | 53 | 1013.0 |
| 20260504022337 | 61 | 182 | 1.0 | 1.0 | 0.00 | 0.00 | 0.00 | 52 | 1013.2 |
| 20260504021833 | 61 | 183 | 1.0 | 1.0 | 0.00 | 0.00 | 0.00 | 52 | 1013.3 |
| 20260504021331 | 61 | 193 | 1.0 | 2.0 | 0.00 | 0.00 | 0.00 | 52 | 1013.2 |
| 20260504020828 | 61 | 200 | 2.0 | 2.0 | 0.00 | 0.00 | 0.00 | 52 | 1013.0 |
| 20260504020324 | 62 | 180 | 1.0 | 1.0 | 0.00 | 0.00 | 0.00 | 51 | 1013.0 |
| 20260504015820 | 61 | 209 | 2.0 | 2.0 | 0.00 | 0.00 | 0.00 | 51 | 1013.1 |
| 20260504015317 | 62 | 183 | 1.0 | 1.0 | 0.00 | 0.00 | 0.00 | 52 | 1013.1 |
| 20260504014813 | 61 | 178 | 1.0 | 1.0 | 0.00 | 0.00 | 0.00 | 53 | 1013.1 |
| 20260504014309 | 61 | 177 | 1.0 | 1.0 | 0.00 | 0.00 | 0.00 | 54 | 1013.2 |
| 20260504013807 | 60 | 179 | 1.0 | 1.0 | 0.00 | 0.00 | 0.00 | 55 | 1013.2 |
| 20260504013305 | 61 | 181 | 0.0 | 0.0 | 0.00 | 0.00 | 0.00 | 54 | 1013.2 |
| 20260504012801 | 61 | 182 | 0.0 | 1.0 | 0.00 | 0.00 | 0.00 | 54 | 1013.3 |
| 20260504012259 | 61 | 182 | 0.0 | 0.0 | 0.00 | 0.00 | 0.00 | 52 | 1013.4 |
| 20260504011755 | 61 | 183 | 1.0 | 1.0 | 0.00 | 0.00 | 0.00 | 52 | 1013.3 |
| 20260504011252 | 62 | 182 | 0.0 | 0.0 | 0.00 | 0.00 | 0.00 | 51 | 1013.2 |
| 20260504010748 | 62 | 183 | 0.0 | 0.0 | 0.00 | 0.00 | 0.00 | 49 | 1013.0 |
| 20260504010244 | 62 | 182 | 0.0 | 0.0 | 0.00 | 0.00 | 0.00 | 49 | 1013.2 |
| 20260504005741 | 63 | 175 | 0.0 | 0.0 | 0.00 | 0.00 | 0.00 | 48 | 1013.1 |
| 20260504005238 | 63 | 182 | 1.0 | 1.0 | 0.00 | 0.00 | 0.00 | 48 | 1013.2 |
| 20260504004736 | 63 | 177 | 0.0 | 0.0 | 0.00 | 0.00 | 0.00 | 46 | 1013.2 |
| 20260504004232 | 63 | 167 | 0.0 | 0.0 | 0.00 | 0.00 | 0.00 | 46 | 1013.1 |
| 20260504003729 | 64 | 178 | 0.0 | 0.0 | 0.00 | 0.00 | 0.00 | 46 | 1013.2 |
| 20260504003226 | 64 | 164 | 1.0 | 1.0 | 0.00 | 0.00 | 0.00 | 44 | 1012.8 |
| 20260504002723 | 64 | 202 | 1.0 | 1.0 | 0.00 | 0.00 | 0.00 | 44 | 1012.7 |
| 20260504002220 | 65 | 184 | 2.0 | 2.0 | 0.00 | 0.00 | 0.00 | 44 | 1012.8 |
| 20260504001718 | 65 | 191 | 2.0 | 3.0 | 0.00 | 0.00 | 0.00 | 43 | 1012.6 |
| 20260504001214 | 65 | 202 | 0.0 | 1.0 | 0.00 | 0.00 | 0.00 | 44 | 1012.8 |
| 20260504000711 | 65 | 163 | 1.0 | 6.0 | 0.00 | 0.00 | 0.00 | 43 | 1012.4 |
| 20260504000208 | 65 | 195 | 0.0 | 0.0 | 0.00 | 0.00 | 0.00 | 44 | 1012.6 |
| 20260503235706 | 65 | 206 | 0.0 | 1.0 | 0.00 | 0.00 | 0.00 | 43 | 1012.5 |
| 20260503235203 | 65 | 192 | 1.0 | 2.0 | 0.00 | 0.00 | 0.00 | 44 | 1012.5 |
| 20260503234700 | 66 | 193 | 0.0 | 1.0 | 0.00 | 0.00 | 0.00 | 43 | 1012.5 |
| 20260503234159 | 66 | 178 | 4.0 | 8.0 | 0.00 | 0.00 | 0.00 | 42 | 1012.4 |
| 20260503233655 | 66 | 204 | 2.0 | 2.0 | 0.00 | 0.00 | 0.00 | 42 | 1012.7 |
| 20260503233151 | 66 | 183 | 2.0 | 4.0 | 0.00 | 0.00 | 0.00 | 42 | 1012.6 |
| 20260503232648 | 66 | 170 | 4.0 | 6.0 | 0.00 | 0.00 | 0.00 | 41 | 1012.7 |
| 20260503232145 | 67 | 182 | 3.0 | 4.0 | 0.00 | 0.00 | 0.00 | 40 | 1012.8 |
| 20260503231644 | 67 | 154 | 1.0 | 1.0 | 0.00 | 0.00 | 0.00 | 41 | 1012.7 |
| 20260503231139 | 66 | 172 | 1.0 | 1.0 | 0.00 | 0.00 | 0.00 | 42 | 1012.8 |
| 20260503230636 | 67 | 203 | 1.0 | 2.0 | 0.00 | 0.00 | 0.00 | 41 | 1012.9 |
| 20260503230134 | 67 | 178 | 2.0 | 4.0 | 0.00 | 0.00 | 0.00 | 40 | 1013.1 |
| 20260503225631 | 67 | 203 | 2.0 | 2.0 | 0.00 | 0.00 | 0.00 | 41 | 1012.9 |
| 20260503225131 | 67 | 172 | 3.0 | 3.0 | 0.00 | 0.00 | 0.00 | 41 | 1013.2 |
| 20260503224628 | 67 | 199 | 1.0 | 2.0 | 0.00 | 0.00 | 0.00 | 40 | 1013.1 |
| 20260503224126 | 67 | 198 | 3.0 | 4.0 | 0.00 | 0.00 | 0.00 | 41 | 1013.1 |
| 20260503223624 | 67 | 192 | 2.0 | 3.0 | 0.00 | 0.00 | 0.00 | 39 | 1013.4 |
| 20260503223119 | 67 | 147 | 6.0 | 7.0 | 0.00 | 0.00 | 0.00 | 41 | 1013.5 |
| 20260503222617 | 67 | 196 | 1.0 | 1.0 | 0.00 | 0.00 | 0.00 | 42 | 1013.4 |
| 20260503222115 | 67 | 201 | 1.0 | 2.0 | 0.00 | 0.00 | 0.00 | 40 | 1013.4 |
| 20260503221613 | 67 | 242 | 2.0 | 3.0 | 0.00 | 0.00 | 0.00 | 41 | 1013.8 |
| 20260503221110 | 67 | 201 | 1.0 | 2.0 | 0.00 | 0.00 | 0.00 | 41 | 1013.8 |
| 20260503220607 | 67 | 192 | 1.0 | 2.0 | 0.00 | 0.00 | 0.00 | 41 | 1013.7 |
| 20260503220104 | 67 | 216 | 2.0 | 2.0 | 0.00 | 0.00 | 0.00 | 40 | 1013.8 |
| 20260503215600 | 67 | 221 | 3.0 | 4.0 | 0.00 | 0.00 | 0.00 | 41 | 1013.9 |
| 20260503215057 | 68 | 194 | 1.0 | 2.0 | 0.00 | 0.00 | 0.00 | 41 | 1014.0 |
| 20260503214555 | 67 | 229 | 1.0 | 2.0 | 0.00 | 0.00 | 0.00 | 39 | 1014.1 |
| 20260503214052 | 67 | 167 | 1.0 | 1.0 | 0.00 | 0.00 | 0.00 | 41 | 1014.1 |
| 20260503213550 | 67 | 199 | 2.0 | 2.0 | 0.00 | 0.00 | 0.00 | 42 | 1014.3 |
| 20260503213047 | 67 | 196 | 0.0 | 1.0 | 0.00 | 0.00 | 0.00 | 40 | 1014.2 |
| 20260503212544 | 67 | 209 | 4.0 | 8.0 | 0.00 | 0.00 | 0.00 | 41 | 1014.6 |
| 20260503212042 | 67 | 209 | 1.0 | 2.0 | 0.00 | 0.00 | 0.00 | 41 | 1014.6 |
| 20260503211538 | 67 | 134 | 7.0 | 9.0 | 0.00 | 0.00 | 0.00 | 41 | 1014.7 |
| 20260503211034 | 67 | 206 | 2.0 | 2.0 | 0.00 | 0.00 | 0.00 | 41 | 1014.9 |
| 20260503210531 | 67 | 256 | 4.0 | 7.0 | 0.00 | 0.00 | 0.00 | 40 | 1015.0 |
| 20260503210027 | 67 | 239 | 3.0 | 4.0 | 0.00 | 0.00 | 0.00 | 41 | 1015.1 |
| 20260503205523 | 67 | 189 | 1.0 | 2.0 | 0.00 | 0.00 | 0.00 | 42 | 1015.3 |
| 20260503205020 | 67 | 185 | 4.0 | 4.0 | 0.00 | 0.00 | 0.00 | 40 | 1015.4 |
| 20260503204517 | 67 | 234 | 2.0 | 3.0 | 0.00 | 0.00 | 0.00 | 42 | 1015.5 |
| 20260503204014 | 67 | 225 | 1.0 | 2.0 | 0.00 | 0.00 | 0.00 | 43 | 1015.6 |
| 20260503203511 | 67 | 175 | 0.0 | 1.0 | 0.00 | 0.00 | 0.00 | 43 | 1015.4 |
| 20260503203008 | 67 | 203 | 1.0 | 1.0 | 0.00 | 0.00 | 0.00 | 42 | 1015.8 |
| 20260503202506 | 67 | 179 | 9.0 | 10.0 | 0.00 | 0.00 | 0.00 | 42 | 1016.1 |
| 20260503202004 | 67 | 155 | 1.0 | 1.0 | 0.00 | 0.00 | 0.00 | 44 | 1015.9 |
| 20260503201501 | 67 | 79 | 2.0 | 2.0 | 0.00 | 0.00 | 0.00 | 42 | 1016.3 |
| 20260503200959 | 67 | 204 | 2.0 | 2.0 | 0.00 | 0.00 | 0.00 | 44 | 1016.4 |
| 20260503200455 | 68 | 208 | 6.0 | 11.0 | 0.00 | 0.00 | 0.00 | 42 | 1016.5 |
| 20260503195951 | 67 | 157 | 2.0 | 3.0 | 0.00 | 0.00 | 0.00 | 42 | 1016.7 |
| 20260503195449 | 67 | 241 | 2.0 | 2.0 | 0.00 | 0.00 | 0.00 | 41 | 1016.8 |
| 20260503194945 | 67 | 268 | 2.0 | 4.0 | 0.00 | 0.00 | 0.00 | 44 | 1016.8 |
| 20260503194443 | 67 | 174 | 0.0 | 1.0 | 0.00 | 0.00 | 0.00 | 44 | 1016.7 |
| 20260503193937 | 67 | 137 | 2.0 | 2.0 | 0.00 | 0.00 | 0.00 | 41 | 1016.9 |
| 20260503193433 | 66 | 214 | 2.0 | 2.0 | 0.00 | 0.00 | 0.00 | 44 | 1016.9 |
| 20260503192929 | 67 | 185 | 2.0 | 2.0 | 0.00 | 0.00 | 0.00 | 43 | 1017.1 |
| 20260503192426 | 66 | 202 | 1.0 | 2.0 | 0.00 | 0.00 | 0.00 | 44 | 1017.3 |
| 20260503191921 | 67 | 175 | 3.0 | 4.0 | 0.00 | 0.00 | 0.00 | 44 | 1017.2 |
| 20260503191419 | 67 | 219 | 2.0 | 2.0 | 0.00 | 0.00 | 0.00 | 44 | 1017.2 |
| 20260503190915 | 67 | 138 | 5.0 | 6.0 | 0.00 | 0.00 | 0.00 | 45 | 1017.4 |
| 20260503190413 | 66 | 207 | 0.0 | 1.0 | 0.00 | 0.00 | 0.00 | 46 | 1017.4 |
| 20260503185909 | 66 | 222 | 4.0 | 9.0 | 0.00 | 0.00 | 0.00 | 44 | 1017.6 |
| 20260503185406 | 66 | 229 | 2.0 | 3.0 | 0.00 | 0.00 | 0.00 | 43 | 1017.7 |
| 20260503184905 | 66 | 201 | 3.0 | 3.0 | 0.00 | 0.00 | 0.00 | 43 | 1018.1 |
| 20260503184402 | 65 | 217 | 1.0 | 1.0 | 0.00 | 0.00 | 0.00 | 47 | 1018.2 |
| 20260503183858 | 65 | 175 | 2.0 | 3.0 | 0.00 | 0.00 | 0.00 | 46 | 1018.1 |
| 20260503183355 | 66 | 154 | 2.0 | 2.0 | 0.00 | 0.00 | 0.00 | 45 | 1018.5 |
| 20260503182852 | 66 | 221 | 1.0 | 2.0 | 0.00 | 0.00 | 0.00 | 44 | 1018.4 |
| 20260503182351 | 66 | 207 | 5.0 | 8.0 | 0.00 | 0.00 | 0.00 | 45 | 1018.3 |
| 20260503181848 | 66 | 158 | 1.0 | 3.0 | 0.00 | 0.00 | 0.00 | 44 | 1018.4 |
| 20260503181345 | 66 | 214 | 2.0 | 3.0 | 0.00 | 0.00 | 0.00 | 44 | 1018.7 |
| 20260503180841 | 65 | 224 | 5.0 | 7.0 | 0.00 | 0.00 | 0.00 | 43 | 1018.7 |
| 20260503180339 | 65 | 208 | 4.0 | 7.0 | 0.00 | 0.00 | 0.00 | 46 | 1018.8 |
| 20260503175835 | 64 | 224 | 1.0 | 1.0 | 0.00 | 0.00 | 0.00 | 43 | 1018.9 |
| 20260503175334 | 64 | 216 | 2.0 | 2.0 | 0.00 | 0.00 | 0.00 | 44 | 1019.0 |
| 20260503174834 | 64 | 172 | 1.0 | 2.0 | 0.00 | 0.00 | 0.00 | 44 | 1019.2 |
| 20260503174333 | 64 | 323 | 2.0 | 3.0 | 0.00 | 0.00 | 0.00 | 46 | 1019.0 |
| 20260503173828 | 63 | 189 | 1.0 | 2.0 | 0.00 | 0.00 | 0.00 | 44 | 1019.3 |
| 20260503173324 | 64 | 132 | 3.0 | 4.0 | 0.00 | 0.00 | 0.00 | 46 | 1019.4 |
| 20260503172821 | 64 | 164 | 0.0 | 0.0 | 0.00 | 0.00 | 0.00 | 44 | 1019.7 |
| 20260503172319 | 63 | 143 | 4.0 | 8.0 | 0.00 | 0.00 | 0.00 | 43 | 1019.6 |
| 20260503171815 | 64 | 214 | 5.0 | 7.0 | 0.00 | 0.00 | 0.00 | 44 | 1019.8 |
| 20260503171312 | 64 | 208 | 1.0 | 1.0 | 0.00 | 0.00 | 0.00 | 42 | 1019.8 |
| 20260503170809 | 64 | 170 | 2.0 | 2.0 | 0.00 | 0.00 | 0.00 | 44 | 1019.9 |
| 20260503170306 | 64 | 153 | 5.0 | 8.0 | 0.00 | 0.00 | 0.00 | 43 | 1020.1 |
| 20260503150658 | 59 | 182 | 5.0 | 7.0 | 0.00 | 0.00 | 0.00 | 47 | 1020.8 |
| 20260503150154 | 59 | 193 | 1.0 | 2.0 | 0.00 | 0.00 | 0.00 | 51 | 1020.8 |
| 20260503140118 | 55 | 185 | 6.0 | 8.0 | 0.00 | 0.00 | 0.00 | 55 | 1020.9 |
| 20260503131048 | 51 | 198 | 0.0 | 0.0 | 0.00 | 0.00 | 0.00 | 73 | 1021.0 |
| 20260503130545 | 51 | 165 | 1.0 | 2.0 | 0.00 | 0.00 | 0.00 | 74 | 1021.0 |
| 20260503110435 | 40 | 325 | 0.0 | 0.0 | 0.00 | 0.00 | 0.00 | 98 | 1020.3 |
| 20260503090326 | 41 | 325 | 0.0 | 0.0 | 0.00 | 0.00 | 0.00 | 98 | 1020.4 |
| 20260503081254 | 40 | 325 | 0.0 | 0.0 | 0.00 | 0.00 | 0.00 | 97 | 1020.3 |
| 20260503080749 | 40 | 325 | 0.0 | 0.0 | 0.00 | 0.00 | 0.00 | 97 | 1020.2 |
| 20260503080247 | 41 | 325 | 0.0 | 0.0 | 0.00 | 0.00 | 0.00 | 97 | 1020.3 |
| 20260503072724 | 39 | 325 | 0.0 | 0.0 | 0.00 | 0.00 | 0.00 | 96 | 1020.1 |
| 20260503072220 | 39 | 325 | 0.0 | 0.0 | 0.00 | 0.00 | 0.00 | 95 | 1020.1 |
| 20260503071717 | 39 | 325 | 0.0 | 0.0 | 0.00 | 0.00 | 0.00 | 94 | 1020.0 |
| 20260503071214 | 39 | 325 | 0.0 | 0.0 | 0.00 | 0.00 | 0.00 | 94 | 1020.0 |
| 20260503070710 | 39 | 325 | 0.0 | 0.0 | 0.00 | 0.00 | 0.00 | 94 | 1020.1 |
| 20260503070209 | 40 | 325 | 0.0 | 0.0 | 0.00 | 0.00 | 0.00 | 94 | 1019.9 |